ADDS METAR Data INFO
IDs: Format: Raw Decoded Include TAF

Data at: 0220 UTC 18 Jan 2018

KHZX 180215Z AUTO 24005KT 10SM CLR M02/M08 A2991 RMK AO2
KHZX 180155Z AUTO 24006KT 10SM CLR M03/M08 A2992 RMK AO2
KHZX 180135Z AUTO 24006KT 10SM CLR M03/M09 A2992 RMK AO2
KHZX 180115Z AUTO 24006KT 10SM CLR M03/M10 A2992 RMK AO2
KHZX 180055Z AUTO 23003KT 10SM CLR M04/M10 A2992 RMK AO2
KHZX 180035Z AUTO 23003KT 10SM CLR M04/M10 A2992 RMK AO2
KHZX 180015Z AUTO 21006KT 10SM CLR M04/M11 A2992 RMK AO2
KHZX 172355Z AUTO 21005KT 10SM CLR M05/M11 A2993 RMK AO2
KHZX 172335Z AUTO 21004KT 10SM CLR M04/M11 A2993 RMK AO2
KHZX 172315Z AUTO 20007KT 10SM CLR M04/M11 A2993 RMK AO2
KHZX 172255Z AUTO 20007KT 10SM CLR M03/M11 A2994 RMK AO2
KHZX 172235Z AUTO 21005KT 10SM CLR M03/M11 A2995 RMK AO2
KHZX 172215Z AUTO 21008KT 10SM CLR M02/M11 A2994 RMK AO2
KHZX 172155Z AUTO 21008KT 10SM CLR M02/M12 A2994 RMK AO2
KHZX 172135Z AUTO 21009G15KT 10SM CLR M02/M12 A2994 RMK AO2
KHZX 172115Z AUTO 21011G15KT 10SM CLR M02/M12 A2994 RMK AO2
KHZX 172055Z AUTO 22010G16KT 10SM CLR M03/M12 A2994 RMK AO2
KHZX 172035Z AUTO 21010KT 10SM CLR M03/M13 A2995 RMK AO2
KHZX 172015Z AUTO 21014G18KT 10SM CLR M03/M13 A2995 RMK AO2
KHZX 171955Z AUTO 21011G14KT 10SM CLR M04/M13 A2996 RMK AO2
KHZX 171935Z AUTO 22010G19KT 10SM CLR M04/M14 A2996 RMK AO2
KHZX 171915Z AUTO 21015G19KT 10SM CLR M05/M14 A2998 RMK AO2
KHZX 171855Z AUTO 21011G15KT 10SM CLR M05/M15 A3000 RMK AO2
KHZX 171835Z AUTO 22011G18KT 10SM CLR M05/M15 A3001 RMK AO2
KHZX 171815Z AUTO 21015G19KT 10SM CLR M06/M15 A3002 RMK AO2
KHZX 171755Z AUTO 22011G18KT 10SM CLR M07/M15 A3004 RMK AO2
KHZX 171735Z AUTO 22012KT 10SM CLR M07/M16 A3005 RMK AO2
KHZX 171715Z AUTO 21010KT 10SM CLR M08/M16 A3006 RMK AO2
KHZX 171655Z AUTO 21010KT 10SM CLR M08/M16 A3007 RMK AO2
KHZX 171635Z AUTO 21010KT 10SM CLR M09/M16 A3008 RMK AO2
KHZX 171615Z AUTO 21012KT 10SM CLR M10/M16 A3009 RMK AO2
KHZX 171555Z AUTO 20011KT 10SM CLR M11/M16 A3009 RMK AO2
KHZX 171535Z AUTO 21010G15KT 10SM CLR M12/M16 A3011 RMK AO2
KHZX 171515Z AUTO 20010G15KT 10SM CLR M12/M17 A3011 RMK AO2
KHZX 171455Z AUTO 21009G15KT 10SM CLR M12/M17 A3012 RMK AO2
KHZX 171435Z AUTO 21010KT 10SM CLR M12/M17 A3013 RMK AO2
KHZX 171415Z AUTO 20008KT 10SM CLR M13/M17 A3013 RMK AO2
KHZX 171355Z AUTO 21008KT 10SM CLR M13/M17 A3014 RMK AO2
KHZX 171335Z AUTO 21008KT 10SM CLR M13/M17 A3015 RMK AO2
KHZX 171315Z AUTO 20007KT 10SM CLR M13/M17 A3016 RMK AO2
KHZX 171255Z AUTO 21006KT 10SM CLR M13/M18 A3018 RMK AO2
KHZX 171235Z AUTO 21007KT 10SM CLR M13/M18 A3019 RMK AO2
KHZX 171215Z AUTO 21007KT 10SM CLR M14/M18 A3020 RMK AO2
KHZX 171155Z AUTO 21008KT 10SM CLR M14/M18 A3021 RMK AO2
KHZX 171135Z AUTO 21006KT 10SM CLR M15/M18 A3022 RMK AO2
KHZX 171115Z AUTO 21006KT 10SM CLR M15/M18 A3022 RMK AO2
KHZX 171055Z AUTO 21007KT 10SM CLR M15/M18 A3023 RMK AO2
KHZX 171035Z AUTO 21006KT 10SM CLR M15/M18 A3024 RMK AO2
KHZX 171015Z AUTO 21007KT 10SM CLR M15/M19 A3025 RMK AO2
KHZX 170955Z AUTO 21008KT 10SM CLR M16/M19 A3025 RMK AO2
KHZX 170935Z AUTO 21007KT 10SM CLR M16/M19 A3027 RMK AO2
KHZX 170915Z AUTO 21008KT 10SM CLR M15/M19 A3028 RMK AO2
KHZX 170855Z AUTO 21007KT 10SM CLR M15/M18 A3029 RMK AO2
KHZX 170835Z AUTO 20007KT 10SM CLR M15/M18 A3029 RMK AO2
KHZX 170815Z AUTO 21006KT 10SM CLR M16/M18 A3031 RMK AO2
KHZX 170755Z AUTO 20006KT 10SM CLR M16/M18 A3031 RMK AO2
KHZX 170735Z AUTO 21006KT 10SM CLR M16/M19 A3032 RMK AO2
KHZX 170715Z AUTO 21004KT 10SM CLR M16/M19 A3032 RMK AO2
KHZX 170655Z AUTO 20006KT 10SM CLR M16/M19 A3032 RMK AO2
KHZX 170635Z AUTO 21007KT 10SM CLR M16/M19 A3033 RMK AO2
KHZX 170615Z AUTO 21006KT 10SM CLR M16/M19 A3034 RMK AO2
KHZX 170555Z AUTO 21004KT 10SM CLR M16/M19 A3036 RMK AO2
KHZX 170535Z AUTO 22004KT 10SM CLR M16/M19 A3037 RMK AO2
KHZX 170515Z AUTO 21005KT 10SM CLR M15/M19 A3038 RMK AO2
KHZX 170455Z AUTO 22006KT 10SM CLR M15/M18 A3039 RMK AO2
KHZX 170435Z AUTO 21006KT 10SM CLR M15/M18 A3040 RMK AO2
KHZX 170415Z AUTO 22005KT 10SM CLR M15/M18 A3041 RMK AO2
KHZX 170355Z AUTO 21006KT 10SM CLR M15/M18 A3040 RMK AO2
KHZX 170336Z AUTO 21004KT 10SM CLR M15/M18 A3041 RMK AO2
KHZX 170315Z AUTO 22005KT 10SM CLR M14/M18 A3042 RMK AO2
KHZX 170255Z AUTO 22005KT 10SM CLR M14/M18 A3042 RMK AO2
KHZX 170236Z AUTO 23007KT 10SM SCT120 M13/M18 A3043 RMK AO2
KHZX 170215Z AUTO 24004KT 10SM OVC120 M14/M18 A3044 RMK AO2
KHZX 170155Z AUTO 24004KT 10SM BKN120 M15/M18 A3045 RMK AO2
KHZX 170135Z AUTO 23004KT 10SM BKN120 M15/M18 A3045 RMK AO2
KHZX 170115Z AUTO 22005KT 10SM CLR M16/M18 A3046 RMK AO2
KHZX 170055Z AUTO 22003KT 10SM CLR M16/M18 A3047 RMK AO2
KHZX 170035Z AUTO 00000KT 10SM CLR M16/M19 A3048 RMK AO2
KHZX 170015Z AUTO 22003KT 10SM CLR M15/M18 A3049 RMK AO2
KHZX 162355Z AUTO 22004KT 10SM CLR M14/M18 A3050 RMK AO2
KHZX 162335Z AUTO 21005KT 10SM CLR M14/M18 A3050 RMK AO2
KHZX 162315Z AUTO 23004KT 10SM SCT100 M13/M17 A3051 RMK AO2
KHZX 162255Z AUTO 22004KT 10SM BKN100 M13/M17 A3052 RMK AO2
KHZX 162235Z AUTO 22003KT 10SM SCT100 M12/M17 A3053 RMK AO2
KHZX 162215Z AUTO 22004KT 10SM CLR M12/M17 A3053 RMK AO2
KHZX 162155Z AUTO 22005KT 10SM CLR M12/M17 A3053 RMK AO2
KHZX 162135Z AUTO 29004KT 10SM CLR M11/M17 A3054 RMK AO2
KHZX 162115Z AUTO 28004KT 10SM CLR M12/M17 A3054 RMK AO2
KHZX 162055Z AUTO 25003KT 10SM CLR M12/M17 A3054 RMK AO2
KHZX 162035Z AUTO 29004KT 10SM CLR M12/M17 A3055 RMK AO2
KHZX 162015Z AUTO 29004KT 10SM CLR M12/M17 A3056 RMK AO2
KHZX 161955Z AUTO 30005KT 10SM CLR M13/M18 A3056 RMK AO2
KHZX 161935Z AUTO 30004KT 10SM CLR M13/M18 A3057 RMK AO2
KHZX 161915Z AUTO 31005KT 10SM CLR M13/M18 A3058 RMK AO2
KHZX 161855Z AUTO 30004KT 10SM CLR M13/M18 A3058 RMK AO2
KHZX 161835Z AUTO 31004KT 10SM CLR M15/M18 A3059 RMK AO2
KHZX 161815Z AUTO 29004KT 10SM CLR M15/M19 A3060 RMK AO2
KHZX 161755Z AUTO 31004KT 10SM CLR M16/M20 A3060 RMK AO2
KHZX 161735Z AUTO 29003KT 10SM CLR M16/M20 A3061 RMK AO2
KHZX 161715Z AUTO 32004KT 10SM SCT008 M17/M20 A3061 RMK AO2
KHZX 161655Z AUTO 31004KT 10SM SCT008 M17/M20 A3062 RMK AO2
KHZX 161635Z AUTO 31006KT 10SM SCT008 M17/M20 A3063 RMK AO2
KHZX 161615Z AUTO 32006KT 10SM SCT008 M18/M20 A3063 RMK AO2
KHZX 161555Z AUTO 32006KT 10SM CLR M18/M21 A3063 RMK AO2
KHZX 161535Z AUTO 33006KT 7SM CLR M18/M21 A3063 RMK AO2
KHZX 161515Z AUTO 32005KT 10SM CLR M19/M21 A3063 RMK AO2
KHZX 161455Z AUTO 32008KT 10SM CLR M20/M21 A3063 RMK AO2
KHZX 161435Z AUTO 32006KT 10SM SCT008 M19/M21 A3063 RMK AO2